Main page
METAR-TAF:

METAR-TAF

Airports :

Auckland, New Zealand

Auckland Airport

latitude: 37-01S, longitude: 174-48E, elevation: 7 m

Current weather observation

The report was made 32 minutes ago, at 10:00 UTC
Wind 3 kt from the Southwest
Temperature 13°C
Humidity 100%
Pressure 1017 hPa
Visibility 10 km or more

METAR: NZAA 281000Z AUTO 23003KT 9999 FEW060/// 13/13 Q1017 NOSIG

Time: 22:32 (10:32 UTC)

Forecast

The report was made 5 hours and 23 minutes ago, at 05:09 UTC
Forecast valid from 28 at 06 UTC to 29 at 06 UTC
Wind 2 kt from variable directions
Visibility 10 km or more
Few clouds at a height of 2000 ft
Scattered clouds at a height of 3000 ft
light rain showers
Probability 40%
from 28 at 12 UTC to 28 at 23 UTC
Visibility: 0400 m
fog
Becoming
from 29 at 03 UTC to 29 at 05 UTC
Wind 10 kt from the Southwest

TAF: NZAA 280509Z 2806/2906 VRB02KT 9999 -SHRA FEW020 SCT030 PROB40 2812/2823 0400 FG BECMG 2903/2905 22010KT

Weather observations and forecasts of more than 4000 airports (METAR and TAF reports).

The available stations are represented by yellow and red dots on the map.

Hover mouse over dot to see the name of the station.

Then click to see weather observations and forecasts.

To change the map : click on the green buttons with a black cross to zoom in, on the green button with a dash to zoom out, or on the green arrows for adjacent maps.


METAR-TAF: